sensor_id;sensor_type;location;lat;lon;timestamp;P1;durP1;ratioP1;P2;durP2;ratioP2
44116;SDS011;29781;49.480;8.512;2023-06-10T00:01:43;8.13;;;6.20;;
44116;SDS011;29781;49.480;8.512;2023-06-10T00:04:11;6.50;;;5.90;;
44116;SDS011;29781;49.480;8.512;2023-06-10T00:06:38;6.63;;;6.13;;
44116;SDS011;29781;49.480;8.512;2023-06-10T00:09:04;6.13;;;5.57;;
44116;SDS011;29781;49.480;8.512;2023-06-10T00:11:33;5.97;;;5.47;;
44116;SDS011;29781;49.480;8.512;2023-06-10T00:13:59;7.65;;;6.40;;
44116;SDS011;29781;49.480;8.512;2023-06-10T00:16:24;7.05;;;6.10;;
44116;SDS011;29781;49.480;8.512;2023-06-10T00:18:50;6.18;;;5.68;;
44116;SDS011;29781;49.480;8.512;2023-06-10T00:21:16;7.90;;;6.22;;
44116;SDS011;29781;49.480;8.512;2023-06-10T00:23:42;7.25;;;6.40;;
44116;SDS011;29781;49.480;8.512;2023-06-10T00:26:08;6.20;;;5.57;;
44116;SDS011;29781;49.480;8.512;2023-06-10T00:28:34;6.22;;;5.57;;
44116;SDS011;29781;49.480;8.512;2023-06-10T00:30:59;5.88;;;5.32;;
44116;SDS011;29781;49.480;8.512;2023-06-10T00:33:25;6.15;;;5.53;;
44116;SDS011;29781;49.480;8.512;2023-06-10T00:35:51;7.15;;;5.63;;
44116;SDS011;29781;49.480;8.512;2023-06-10T00:38:16;7.30;;;6.13;;
44116;SDS011;29781;49.480;8.512;2023-06-10T00:40:42;6.82;;;6.05;;
44116;SDS011;29781;49.480;8.512;2023-06-10T00:43:07;7.07;;;6.38;;
44116;SDS011;29781;49.480;8.512;2023-06-10T00:45:33;8.25;;;6.93;;
44116;SDS011;29781;49.480;8.512;2023-06-10T00:47:59;7.93;;;6.50;;
44116;SDS011;29781;49.480;8.512;2023-06-10T00:50:26;7.43;;;6.72;;
44116;SDS011;29781;49.480;8.512;2023-06-10T00:52:53;8.10;;;7.05;;
44116;SDS011;29781;49.480;8.512;2023-06-10T00:55:19;8.60;;;7.20;;
44116;SDS011;29781;49.480;8.512;2023-06-10T00:57:45;7.72;;;6.97;;
44116;SDS011;29781;49.480;8.512;2023-06-10T01:00:13;11.60;;;8.05;;
44116;SDS011;29781;49.480;8.512;2023-06-10T01:02:40;8.07;;;7.28;;
44116;SDS011;29781;49.480;8.512;2023-06-10T01:05:06;8.02;;;7.18;;
44116;SDS011;29781;49.480;8.512;2023-06-10T01:13:20;8.27;;;7.03;;
44116;SDS011;29781;49.480;8.512;2023-06-10T01:15:49;8.15;;;7.45;;
44116;SDS011;29781;49.480;8.512;2023-06-10T01:18:15;7.25;;;6.60;;
44116;SDS011;29781;49.480;8.512;2023-06-10T01:20:41;8.18;;;7.05;;
44116;SDS011;29781;49.480;8.512;2023-06-10T01:23:10;8.25;;;7.07;;
44116;SDS011;29781;49.480;8.512;2023-06-10T01:25:37;9.15;;;6.85;;
44116;SDS011;29781;49.480;8.512;2023-06-10T01:28:19;7.72;;;7.03;;
44116;SDS011;29781;49.480;8.512;2023-06-10T01:33:46;7.95;;;7.18;;
44116;SDS011;29781;49.480;8.512;2023-06-10T01:36:16;10.10;;;7.22;;
44116;SDS011;29781;49.480;8.512;2023-06-10T01:38:44;7.70;;;6.90;;
44116;SDS011;29781;49.480;8.512;2023-06-10T01:41:11;8.50;;;7.70;;
44116;SDS011;29781;49.480;8.512;2023-06-10T01:43:38;8.10;;;7.40;;
44116;SDS011;29781;49.480;8.512;2023-06-10T01:46:04;9.07;;;7.20;;
44116;SDS011;29781;49.480;8.512;2023-06-10T01:48:30;7.85;;;7.15;;
44116;SDS011;29781;49.480;8.512;2023-06-10T01:50:56;8.35;;;7.50;;
44116;SDS011;29781;49.480;8.512;2023-06-10T01:53:22;10.10;;;7.50;;
44116;SDS011;29781;49.480;8.512;2023-06-10T01:55:48;7.97;;;6.93;;
44116;SDS011;29781;49.480;8.512;2023-06-10T01:58:13;7.93;;;7.18;;
44116;SDS011;29781;49.480;8.512;2023-06-10T02:00:39;7.72;;;7.03;;
44116;SDS011;29781;49.480;8.512;2023-06-10T02:03:04;8.50;;;7.70;;
44116;SDS011;29781;49.480;8.512;2023-06-10T02:05:30;8.05;;;7.25;;
44116;SDS011;29781;49.480;8.512;2023-06-10T02:07:55;7.78;;;6.90;;
44116;SDS011;29781;49.480;8.512;2023-06-10T02:10:21;8.70;;;7.80;;
44116;SDS011;29781;49.480;8.512;2023-06-10T02:12:47;9.70;;;7.38;;
44116;SDS011;29781;49.480;8.512;2023-06-10T02:15:12;8.63;;;6.97;;
44116;SDS011;29781;49.480;8.512;2023-06-10T02:17:38;8.32;;;7.50;;
44116;SDS011;29781;49.480;8.512;2023-06-10T02:20:04;8.20;;;6.95;;
44116;SDS011;29781;49.480;8.512;2023-06-10T02:22:32;8.27;;;7.32;;
44116;SDS011;29781;49.480;8.512;2023-06-10T02:24:58;8.15;;;6.90;;
44116;SDS011;29781;49.480;8.512;2023-06-10T02:27:23;7.60;;;6.75;;
44116;SDS011;29781;49.480;8.512;2023-06-10T02:29:49;8.32;;;7.50;;
44116;SDS011;29781;49.480;8.512;2023-06-10T02:32:15;8.13;;;7.43;;
44116;SDS011;29781;49.480;8.512;2023-06-10T02:34:41;7.68;;;6.72;;
44116;SDS011;29781;49.480;8.512;2023-06-10T02:37:08;8.15;;;7.35;;
44116;SDS011;29781;49.480;8.512;2023-06-10T02:39:34;8.07;;;7.38;;
44116;SDS011;29781;49.480;8.512;2023-06-10T02:42:00;11.43;;;7.32;;
44116;SDS011;29781;49.480;8.512;2023-06-10T02:44:25;9.20;;;8.00;;
44116;SDS011;29781;49.480;8.512;2023-06-10T02:46:51;7.90;;;7.10;;
44116;SDS011;29781;49.480;8.512;2023-06-10T02:49:16;8.70;;;7.80;;
44116;SDS011;29781;49.480;8.512;2023-06-10T02:51:42;8.25;;;7.55;;
44116;SDS011;29781;49.480;8.512;2023-06-10T02:54:07;8.90;;;8.00;;
44116;SDS011;29781;49.480;8.512;2023-06-10T02:56:33;8.25;;;7.55;;
44116;SDS011;29781;49.480;8.512;2023-06-10T02:58:59;8.77;;;7.63;;
44116;SDS011;29781;49.480;8.512;2023-06-10T03:01:25;9.48;;;7.53;;
44116;SDS011;29781;49.480;8.512;2023-06-10T03:03:50;8.48;;;7.68;;
44116;SDS011;29781;49.480;8.512;2023-06-10T03:06:16;8.63;;;7.82;;
44116;SDS011;29781;49.480;8.512;2023-06-10T03:08:41;11.27;;;7.50;;
44116;SDS011;29781;49.480;8.512;2023-06-10T03:11:07;8.60;;;7.70;;
44116;SDS011;29781;49.480;8.512;2023-06-10T03:13:33;9.32;;;7.90;;
44116;SDS011;29781;49.480;8.512;2023-06-10T03:15:59;8.52;;;7.72;;
44116;SDS011;29781;49.480;8.512;2023-06-10T03:18:25;12.82;;;8.50;;
44116;SDS011;29781;49.480;8.512;2023-06-10T03:20:52;8.63;;;7.82;;
44116;SDS011;29781;49.480;8.512;2023-06-10T03:23:18;8.82;;;7.95;;
44116;SDS011;29781;49.480;8.512;2023-06-10T03:25:44;10.38;;;8.02;;
44116;SDS011;29781;49.480;8.512;2023-06-10T03:28:10;9.13;;;8.25;;
44116;SDS011;29781;49.480;8.512;2023-06-10T03:30:36;9.55;;;8.70;;
44116;SDS011;29781;49.480;8.512;2023-06-10T03:33:01;12.40;;;8.70;;
44116;SDS011;29781;49.480;8.512;2023-06-10T03:35:27;10.82;;;8.95;;
44116;SDS011;29781;49.480;8.512;2023-06-10T03:37:52;10.43;;;9.23;;
44116;SDS011;29781;49.480;8.512;2023-06-10T03:40:18;10.43;;;9.52;;
44116;SDS011;29781;49.480;8.512;2023-06-10T03:42:43;11.27;;;9.73;;
44116;SDS011;29781;49.480;8.512;2023-06-10T03:45:09;11.35;;;9.18;;
44116;SDS011;29781;49.480;8.512;2023-06-10T03:47:36;11.48;;;9.27;;
44116;SDS011;29781;49.480;8.512;2023-06-10T03:50:03;11.07;;;9.20;;
44116;SDS011;29781;49.480;8.512;2023-06-10T03:52:29;12.15;;;9.50;;
44116;SDS011;29781;49.480;8.512;2023-06-10T03:54:55;10.15;;;9.13;;
44116;SDS011;29781;49.480;8.512;2023-06-10T03:57:20;12.10;;;9.82;;
44116;SDS011;29781;49.480;8.512;2023-06-10T03:59:46;13.35;;;9.82;;
44116;SDS011;29781;49.480;8.512;2023-06-10T04:02:11;11.82;;;10.73;;
44116;SDS011;29781;49.480;8.512;2023-06-10T04:04:37;11.45;;;9.80;;
44116;SDS011;29781;49.480;8.512;2023-06-10T04:07:03;14.45;;;10.30;;
44116;SDS011;29781;49.480;8.512;2023-06-10T04:09:29;11.23;;;9.88;;
44116;SDS011;29781;49.480;8.512;2023-06-10T04:11:55;11.05;;;9.95;;
44116;SDS011;29781;49.480;8.512;2023-06-10T04:14:21;11.35;;;10.15;;
44116;SDS011;29781;49.480;8.512;2023-06-10T04:16:46;16.48;;;10.63;;
44116;SDS011;29781;49.480;8.512;2023-06-10T04:19:12;14.38;;;10.38;;
44116;SDS011;29781;49.480;8.512;2023-06-10T04:21:37;13.07;;;10.52;;
44116;SDS011;29781;49.480;8.512;2023-06-10T04:24:03;11.60;;;10.23;;
44116;SDS011;29781;49.480;8.512;2023-06-10T04:26:29;11.13;;;10.00;;
44116;SDS011;29781;49.480;8.512;2023-06-10T04:28:54;12.70;;;9.68;;
44116;SDS011;29781;49.480;8.512;2023-06-10T04:31:20;12.48;;;10.45;;
44116;SDS011;29781;49.480;8.512;2023-06-10T04:33:45;13.77;;;10.82;;
44116;SDS011;29781;49.480;8.512;2023-06-10T04:36:11;10.98;;;9.93;;
44116;SDS011;29781;49.480;8.512;2023-06-10T04:38:36;11.45;;;10.35;;
44116;SDS011;29781;49.480;8.512;2023-06-10T04:41:02;10.73;;;9.73;;
44116;SDS011;29781;49.480;8.512;2023-06-10T04:43:28;11.70;;;10.48;;
44116;SDS011;29781;49.480;8.512;2023-06-10T04:45:55;11.25;;;10.10;;
44116;SDS011;29781;49.480;8.512;2023-06-10T04:48:21;15.90;;;10.07;;
44116;SDS011;29781;49.480;8.512;2023-06-10T04:50:48;11.30;;;9.95;;
44116;SDS011;29781;49.480;8.512;2023-06-10T04:53:15;11.73;;;10.63;;
44116;SDS011;29781;49.480;8.512;2023-06-10T04:55:41;10.48;;;9.38;;
44116;SDS011;29781;49.480;8.512;2023-06-10T04:58:07;11.98;;;10.85;;
44116;SDS011;29781;49.480;8.512;2023-06-10T05:00:32;11.38;;;10.27;;
44116;SDS011;29781;49.480;8.512;2023-06-10T05:02:58;14.82;;;10.38;;
44116;SDS011;29781;49.480;8.512;2023-06-10T05:05:23;11.77;;;10.57;;
44116;SDS011;29781;49.480;8.512;2023-06-10T05:07:49;13.45;;;9.80;;
44116;SDS011;29781;49.480;8.512;2023-06-10T05:10:14;12.57;;;10.95;;
44116;SDS011;29781;49.480;8.512;2023-06-10T05:12:40;12.05;;;10.85;;
44116;SDS011;29781;49.480;8.512;2023-06-10T05:15:06;17.63;;;11.25;;
44116;SDS011;29781;49.480;8.512;2023-06-10T05:17:32;11.40;;;10.30;;
44116;SDS011;29781;49.480;8.512;2023-06-10T05:19:58;11.25;;;10.15;;
44116;SDS011;29781;49.480;8.512;2023-06-10T05:22:23;11.18;;;10.10;;
44116;SDS011;29781;49.480;8.512;2023-06-10T05:24:49;10.45;;;9.23;;
44116;SDS011;29781;49.480;8.512;2023-06-10T05:27:16;14.55;;;10.77;;
44116;SDS011;29781;49.480;8.512;2023-06-10T05:29:41;15.93;;;10.52;;
44116;SDS011;29781;49.480;8.512;2023-06-10T05:32:07;10.85;;;9.75;;
44116;SDS011;29781;49.480;8.512;2023-06-10T05:34:33;11.18;;;10.10;;
44116;SDS011;29781;49.480;8.512;2023-06-10T05:36:59;13.80;;;10.13;;
44116;SDS011;29781;49.480;8.512;2023-06-10T05:39:24;11.02;;;9.93;;
44116;SDS011;29781;49.480;8.512;2023-06-10T05:41:50;13.02;;;11.10;;
44116;SDS011;29781;49.480;8.512;2023-06-10T05:44:15;10.93;;;9.93;;
44116;SDS011;29781;49.480;8.512;2023-06-10T05:46:41;12.15;;;10.30;;
44116;SDS011;29781;49.480;8.512;2023-06-10T05:49:07;10.68;;;9.43;;
44116;SDS011;29781;49.480;8.512;2023-06-10T05:51:32;11.02;;;9.75;;
44116;SDS011;29781;49.480;8.512;2023-06-10T05:53:58;11.00;;;9.90;;
44116;SDS011;29781;49.480;8.512;2023-06-10T05:56:23;18.48;;;10.73;;
44116;SDS011;29781;49.480;8.512;2023-06-10T05:58:50;12.18;;;10.80;;
44116;SDS011;29781;49.480;8.512;2023-06-10T06:01:16;11.10;;;9.95;;
44116;SDS011;29781;49.480;8.512;2023-06-10T06:03:41;14.63;;;9.60;;
44116;SDS011;29781;49.480;8.512;2023-06-10T06:06:07;10.70;;;9.57;;
44116;SDS011;29781;49.480;8.512;2023-06-10T06:08:32;10.38;;;9.43;;
44116;SDS011;29781;49.480;8.512;2023-06-10T06:10:58;10.52;;;9.50;;
44116;SDS011;29781;49.480;8.512;2023-06-10T06:13:24;10.60;;;9.27;;
44116;SDS011;29781;49.480;8.512;2023-06-10T06:15:49;13.82;;;9.52;;
44116;SDS011;29781;49.480;8.512;2023-06-10T06:18:15;11.50;;;9.88;;
44116;SDS011;29781;49.480;8.512;2023-06-10T06:20:41;18.17;;;10.23;;
44116;SDS011;29781;49.480;8.512;2023-06-10T06:23:06;10.38;;;9.25;;
44116;SDS011;29781;49.480;8.512;2023-06-10T06:25:34;13.95;;;10.13;;
44116;SDS011;29781;49.480;8.512;2023-06-10T06:28:01;15.80;;;9.40;;
44116;SDS011;29781;49.480;8.512;2023-06-10T06:30:26;12.45;;;9.80;;
44116;SDS011;29781;49.480;8.512;2023-06-10T06:32:52;15.48;;;9.20;;
44116;SDS011;29781;49.480;8.512;2023-06-10T06:35:18;9.10;;;8.40;;
44116;SDS011;29781;49.480;8.512;2023-06-10T06:37:43;11.98;;;8.90;;
44116;SDS011;29781;49.480;8.512;2023-06-10T06:40:09;9.75;;;8.75;;
44116;SDS011;29781;49.480;8.512;2023-06-10T06:42:35;12.63;;;8.52;;
44116;SDS011;29781;49.480;8.512;2023-06-10T06:45:00;9.07;;;8.27;;
44116;SDS011;29781;49.480;8.512;2023-06-10T06:47:26;10.25;;;7.90;;
44116;SDS011;29781;49.480;8.512;2023-06-10T06:49:52;8.93;;;8.10;;
44116;SDS011;29781;49.480;8.512;2023-06-10T06:52:18;12.40;;;7.40;;
44116;SDS011;29781;49.480;8.512;2023-06-10T06:54:44;8.38;;;7.57;;
44116;SDS011;29781;49.480;8.512;2023-06-10T06:57:09;8.40;;;7.57;;
44116;SDS011;29781;49.480;8.512;2023-06-10T06:59:35;7.53;;;6.82;;
44116;SDS011;29781;49.480;8.512;2023-06-10T07:02:02;8.80;;;7.85;;
44116;SDS011;29781;49.480;8.512;2023-06-10T07:04:28;6.45;;;5.80;;
44116;SDS011;29781;49.480;8.512;2023-06-10T07:06:54;6.32;;;5.82;;
44116;SDS011;29781;49.480;8.512;2023-06-10T07:09:19;6.95;;;6.30;;
44116;SDS011;29781;49.480;8.512;2023-06-10T07:11:45;9.52;;;5.75;;
44116;SDS011;29781;49.480;8.512;2023-06-10T07:14:10;6.13;;;5.63;;
44116;SDS011;29781;49.480;8.512;2023-06-10T07:16:36;6.45;;;5.82;;
44116;SDS011;29781;49.480;8.512;2023-06-10T07:19:01;5.22;;;4.72;;
44116;SDS011;29781;49.480;8.512;2023-06-10T07:21:27;6.85;;;5.88;;
44116;SDS011;29781;49.480;8.512;2023-06-10T07:23:53;5.05;;;4.65;;
44116;SDS011;29781;49.480;8.512;2023-06-10T07:26:19;5.18;;;4.78;;
44116;SDS011;29781;49.480;8.512;2023-06-10T07:28:46;6.00;;;4.90;;
44116;SDS011;29781;49.480;8.512;2023-06-10T07:31:12;6.22;;;5.20;;
44116;SDS011;29781;49.480;8.512;2023-06-10T07:33:37;6.65;;;4.53;;
44116;SDS011;29781;49.480;8.512;2023-06-10T07:36:04;6.38;;;5.00;;
44116;SDS011;29781;49.480;8.512;2023-06-10T07:38:30;8.30;;;5.30;;
44116;SDS011;29781;49.480;8.512;2023-06-10T07:40:56;4.97;;;4.57;;
44116;SDS011;29781;49.480;8.512;2023-06-10T07:43:22;6.32;;;5.20;;
44116;SDS011;29781;49.480;8.512;2023-06-10T07:45:48;5.90;;;5.40;;
44116;SDS011;29781;49.480;8.512;2023-06-10T07:48:14;5.60;;;5.20;;
44116;SDS011;29781;49.480;8.512;2023-06-10T07:50:39;6.18;;;4.70;;
44116;SDS011;29781;49.480;8.512;2023-06-10T07:53:05;5.80;;;5.30;;
44116;SDS011;29781;49.480;8.512;2023-06-10T07:55:31;6.97;;;6.20;;
44116;SDS011;29781;49.480;8.512;2023-06-10T07:57:57;6.07;;;5.10;;
44116;SDS011;29781;49.480;8.512;2023-06-10T08:00:23;11.07;;;5.90;;
44116;SDS011;29781;49.480;8.512;2023-06-10T08:02:49;5.93;;;5.43;;
44116;SDS011;29781;49.480;8.512;2023-06-10T08:05:15;5.88;;;5.28;;
44116;SDS011;29781;49.480;8.512;2023-06-10T08:07:42;6.20;;;5.55;;
44116;SDS011;29781;49.480;8.512;2023-06-10T08:10:10;5.85;;;5.35;;
44116;SDS011;29781;49.480;8.512;2023-06-10T08:12:42;10.00;;;5.90;;
44116;SDS011;29781;49.480;8.512;2023-06-10T08:15:08;6.78;;;5.50;;
44116;SDS011;29781;49.480;8.512;2023-06-10T08:17:33;10.45;;;5.72;;
44116;SDS011;29781;49.480;8.512;2023-06-10T08:20:00;5.80;;;5.38;;
44116;SDS011;29781;49.480;8.512;2023-06-10T08:22:27;5.97;;;5.25;;
44116;SDS011;29781;49.480;8.512;2023-06-10T08:24:56;6.13;;;5.50;;
44116;SDS011;29781;49.480;8.512;2023-06-10T08:27:21;7.00;;;5.45;;
44116;SDS011;29781;49.480;8.512;2023-06-10T08:29:54;5.78;;;5.28;;
44116;SDS011;29781;49.480;8.512;2023-06-10T08:32:20;6.20;;;5.60;;
44116;SDS011;29781;49.480;8.512;2023-06-10T08:34:49;6.30;;;5.70;;
44116;SDS011;29781;49.480;8.512;2023-06-10T08:37:18;6.03;;;5.53;;
44116;SDS011;29781;49.480;8.512;2023-06-10T08:39:43;7.57;;;6.60;;
44116;SDS011;29781;49.480;8.512;2023-06-10T08:42:22;6.78;;;5.57;;
44116;SDS011;29781;49.480;8.512;2023-06-10T08:44:53;6.05;;;5.55;;
44116;SDS011;29781;49.480;8.512;2023-06-10T08:47:22;5.88;;;5.38;;
44116;SDS011;29781;49.480;8.512;2023-06-10T08:49:54;6.47;;;5.90;;
44116;SDS011;29781;49.480;8.512;2023-06-10T08:52:21;5.53;;;5.13;;
44116;SDS011;29781;49.480;8.512;2023-06-10T08:55:33;6.25;;;5.65;;
44116;SDS011;29781;49.480;8.512;2023-06-10T08:57:59;6.45;;;5.35;;
44116;SDS011;29781;49.480;8.512;2023-06-10T09:00:28;5.82;;;5.40;;
44116;SDS011;29781;49.480;8.512;2023-06-10T09:02:55;5.95;;;5.45;;
44116;SDS011;29781;49.480;8.512;2023-06-10T09:05:21;6.35;;;5.57;;
44116;SDS011;29781;49.480;8.512;2023-06-10T09:07:57;9.95;;;9.02;;
44116;SDS011;29781;49.480;8.512;2023-06-10T09:10:23;6.93;;;5.38;;
44116;SDS011;29781;49.480;8.512;2023-06-10T09:12:51;6.68;;;6.00;;
44116;SDS011;29781;49.480;8.512;2023-06-10T09:15:17;7.38;;;5.40;;
44116;SDS011;29781;49.480;8.512;2023-06-10T09:17:43;8.18;;;5.97;;
44116;SDS011;29781;49.480;8.512;2023-06-10T09:20:08;5.70;;;5.20;;
44116;SDS011;29781;49.480;8.512;2023-06-10T09:22:34;7.88;;;5.80;;
44116;SDS011;29781;49.480;8.512;2023-06-10T09:27:40;7.13;;;6.03;;
44116;SDS011;29781;49.480;8.512;2023-06-10T09:33:00;6.55;;;6.00;;
44116;SDS011;29781;49.480;8.512;2023-06-10T09:35:27;8.13;;;6.43;;
44116;SDS011;29781;49.480;8.512;2023-06-10T09:37:55;6.35;;;5.75;;
44116;SDS011;29781;49.480;8.512;2023-06-10T09:40:22;7.20;;;6.20;;
44116;SDS011;29781;49.480;8.512;2023-06-10T09:42:52;6.50;;;6.00;;
44116;SDS011;29781;49.480;8.512;2023-06-10T09:45:20;7.90;;;7.05;;
44116;SDS011;29781;49.480;8.512;2023-06-10T09:47:46;8.55;;;7.75;;
44116;SDS011;29781;49.480;8.512;2023-06-10T09:50:12;9.45;;;7.25;;
44116;SDS011;29781;49.480;8.512;2023-06-10T09:52:38;9.40;;;7.28;;
44116;SDS011;29781;49.480;8.512;2023-06-10T09:55:04;8.90;;;7.35;;
44116;SDS011;29781;49.480;8.512;2023-06-10T09:57:32;8.43;;;7.72;;
44116;SDS011;29781;49.480;8.512;2023-06-10T09:59:58;8.82;;;8.00;;
44116;SDS011;29781;49.480;8.512;2023-06-10T10:02:24;9.75;;;7.00;;
44116;SDS011;29781;49.480;8.512;2023-06-10T10:04:50;8.75;;;6.63;;
44116;SDS011;29781;49.480;8.512;2023-06-10T10:07:15;7.03;;;6.28;;
44116;SDS011;29781;49.480;8.512;2023-06-10T10:09:41;6.95;;;6.25;;
44116;SDS011;29781;49.480;8.512;2023-06-10T10:14:37;7.43;;;5.85;;
44116;SDS011;29781;49.480;8.512;2023-06-10T10:17:04;6.38;;;5.25;;
44116;SDS011;29781;49.480;8.512;2023-06-10T10:19:32;10.52;;;5.63;;
44116;SDS011;29781;49.480;8.512;2023-06-10T10:22:06;5.38;;;4.80;;
44116;SDS011;29781;49.480;8.512;2023-06-10T10:24:36;5.63;;;5.20;;
44116;SDS011;29781;49.480;8.512;2023-06-10T10:27:11;6.43;;;4.70;;
44116;SDS011;29781;49.480;8.512;2023-06-10T10:29:42;5.68;;;5.18;;
44116;SDS011;29781;49.480;8.512;2023-06-10T10:37:15;7.70;;;5.57;;
44116;SDS011;29781;49.480;8.512;2023-06-10T10:39:42;6.95;;;5.00;;
44116;SDS011;29781;49.480;8.512;2023-06-10T10:42:08;6.65;;;5.55;;
44116;SDS011;29781;49.480;8.512;2023-06-10T10:44:35;5.28;;;4.78;;
44116;SDS011;29781;49.480;8.512;2023-06-10T10:47:02;5.45;;;4.95;;
44116;SDS011;29781;49.480;8.512;2023-06-10T10:49:31;6.00;;;5.13;;
44116;SDS011;29781;49.480;8.512;2023-06-10T10:52:00;9.25;;;5.13;;
44116;SDS011;29781;49.480;8.512;2023-06-10T10:54:35;5.15;;;4.65;;
44116;SDS011;29781;49.480;8.512;2023-06-10T10:57:09;5.50;;;4.88;;
44116;SDS011;29781;49.480;8.512;2023-06-10T11:02:18;5.00;;;4.50;;
44116;SDS011;29781;49.480;8.512;2023-06-10T11:04:56;6.63;;;4.65;;
44116;SDS011;29781;49.480;8.512;2023-06-10T11:07:24;5.25;;;4.35;;
44116;SDS011;29781;49.480;8.512;2023-06-10T11:09:57;5.30;;;4.18;;
44116;SDS011;29781;49.480;8.512;2023-06-10T11:15:13;5.30;;;4.80;;
44116;SDS011;29781;49.480;8.512;2023-06-10T11:23:08;4.93;;;4.53;;
44116;SDS011;29781;49.480;8.512;2023-06-10T11:25:38;5.10;;;4.60;;
44116;SDS011;29781;49.480;8.512;2023-06-10T11:31:02;5.13;;;4.72;;
44116;SDS011;29781;49.480;8.512;2023-06-10T11:33:28;5.70;;;4.72;;
44116;SDS011;29781;49.480;8.512;2023-06-10T11:35:54;5.82;;;5.03;;
44116;SDS011;29781;49.480;8.512;2023-06-10T11:38:20;5.47;;;4.20;;
44116;SDS011;29781;49.480;8.512;2023-06-10T11:40:49;4.68;;;4.03;;
44116;SDS011;29781;49.480;8.512;2023-06-10T11:43:16;4.75;;;4.38;;
44116;SDS011;29781;49.480;8.512;2023-06-10T11:45:42;7.07;;;4.93;;
44116;SDS011;29781;49.480;8.512;2023-06-10T11:48:08;4.45;;;4.10;;
44116;SDS011;29781;49.480;8.512;2023-06-10T11:50:34;4.45;;;4.15;;
44116;SDS011;29781;49.480;8.512;2023-06-10T11:53:00;6.00;;;4.60;;
44116;SDS011;29781;49.480;8.512;2023-06-10T11:55:39;6.13;;;4.25;;
44116;SDS011;29781;49.480;8.512;2023-06-10T11:58:21;4.90;;;4.38;;
44116;SDS011;29781;49.480;8.512;2023-06-10T12:00:54;5.25;;;4.13;;
44116;SDS011;29781;49.480;8.512;2023-06-10T12:03:23;5.53;;;4.43;;
44116;SDS011;29781;49.480;8.512;2023-06-10T12:05:57;4.85;;;4.38;;
44116;SDS011;29781;49.480;8.512;2023-06-10T12:08:23;5.32;;;4.53;;
44116;SDS011;29781;49.480;8.512;2023-06-10T12:10:49;4.78;;;4.38;;
44116;SDS011;29781;49.480;8.512;2023-06-10T12:13:15;12.95;;;4.40;;
44116;SDS011;29781;49.480;8.512;2023-06-10T12:15:42;4.43;;;4.13;;
44116;SDS011;29781;49.480;8.512;2023-06-10T12:18:09;7.43;;;4.22;;
44116;SDS011;29781;49.480;8.512;2023-06-10T12:20:41;4.45;;;4.05;;
44116;SDS011;29781;49.480;8.512;2023-06-10T12:23:10;4.55;;;4.15;;
44116;SDS011;29781;49.480;8.512;2023-06-10T12:25:37;4.90;;;4.50;;
44116;SDS011;29781;49.480;8.512;2023-06-10T12:28:03;6.28;;;4.78;;
44116;SDS011;29781;49.480;8.512;2023-06-10T12:30:29;5.38;;;4.82;;
44116;SDS011;29781;49.480;8.512;2023-06-10T12:32:56;4.60;;;4.20;;
44116;SDS011;29781;49.480;8.512;2023-06-10T12:35:23;6.28;;;4.32;;
44116;SDS011;29781;49.480;8.512;2023-06-10T12:38:02;7.32;;;4.55;;
44116;SDS011;29781;49.480;8.512;2023-06-10T12:40:40;5.00;;;4.60;;
44116;SDS011;29781;49.480;8.512;2023-06-10T12:43:06;4.95;;;4.57;;
44116;SDS011;29781;49.480;8.512;2023-06-10T12:45:33;4.80;;;4.40;;
44116;SDS011;29781;49.480;8.512;2023-06-10T12:48:16;5.70;;;4.45;;
44116;SDS011;29781;49.480;8.512;2023-06-10T12:50:42;5.13;;;4.65;;
44116;SDS011;29781;49.480;8.512;2023-06-10T12:53:09;4.63;;;4.22;;
44116;SDS011;29781;49.480;8.512;2023-06-10T12:55:38;9.45;;;4.15;;
44116;SDS011;29781;49.480;8.512;2023-06-10T12:58:04;5.22;;;4.70;;
44116;SDS011;29781;49.480;8.512;2023-06-10T13:00:30;4.93;;;4.55;;
44116;SDS011;29781;49.480;8.512;2023-06-10T13:03:03;5.68;;;4.55;;
44116;SDS011;29781;49.480;8.512;2023-06-10T13:05:37;5.45;;;4.50;;
44116;SDS011;29781;49.480;8.512;2023-06-10T13:08:04;5.68;;;5.00;;
44116;SDS011;29781;49.480;8.512;2023-06-10T13:10:31;5.13;;;4.70;;
44116;SDS011;29781;49.480;8.512;2023-06-10T13:12:59;4.82;;;4.35;;
44116;SDS011;29781;49.480;8.512;2023-06-10T13:15:25;5.63;;;5.10;;
44116;SDS011;29781;49.480;8.512;2023-06-10T13:17:51;4.90;;;4.43;;
44116;SDS011;29781;49.480;8.512;2023-06-10T13:20:17;5.13;;;4.63;;
44116;SDS011;29781;49.480;8.512;2023-06-10T13:22:43;6.43;;;5.00;;
44116;SDS011;29781;49.480;8.512;2023-06-10T13:25:10;6.15;;;4.78;;
44116;SDS011;29781;49.480;8.512;2023-06-10T13:27:35;5.95;;;4.88;;
44116;SDS011;29781;49.480;8.512;2023-06-10T13:30:04;8.02;;;5.00;;
44116;SDS011;29781;49.480;8.512;2023-06-10T13:32:34;5.38;;;4.75;;
44116;SDS011;29781;49.480;8.512;2023-06-10T13:35:00;5.82;;;5.22;;
44116;SDS011;29781;49.480;8.512;2023-06-10T13:37:26;5.13;;;4.60;;
44116;SDS011;29781;49.480;8.512;2023-06-10T13:39:53;5.18;;;4.78;;
44116;SDS011;29781;49.480;8.512;2023-06-10T13:42:24;4.93;;;4.43;;
44116;SDS011;29781;49.480;8.512;2023-06-10T13:44:51;6.32;;;4.90;;
44116;SDS011;29781;49.480;8.512;2023-06-10T13:47:16;5.47;;;4.80;;
44116;SDS011;29781;49.480;8.512;2023-06-10T13:49:45;5.43;;;4.90;;
44116;SDS011;29781;49.480;8.512;2023-06-10T13:52:11;4.97;;;4.53;;
44116;SDS011;29781;49.480;8.512;2023-06-10T13:54:36;5.15;;;4.75;;
44116;SDS011;29781;49.480;8.512;2023-06-10T13:57:05;5.13;;;4.72;;
44116;SDS011;29781;49.480;8.512;2023-06-10T13:59:31;5.40;;;4.88;;
44116;SDS011;29781;49.480;8.512;2023-06-10T14:01:56;5.15;;;4.60;;
44116;SDS011;29781;49.480;8.512;2023-06-10T14:04:24;5.43;;;4.43;;
44116;SDS011;29781;49.480;8.512;2023-06-10T14:06:49;4.55;;;4.15;;
44116;SDS011;29781;49.480;8.512;2023-06-10T14:09:15;6.93;;;4.25;;
44116;SDS011;29781;49.480;8.512;2023-06-10T14:11:41;6.07;;;3.92;;
44116;SDS011;29781;49.480;8.512;2023-06-10T14:14:07;4.47;;;4.18;;
44116;SDS011;29781;49.480;8.512;2023-06-10T14:16:33;4.55;;;4.15;;
44116;SDS011;29781;49.480;8.512;2023-06-10T14:19:06;4.90;;;4.40;;
44116;SDS011;29781;49.480;8.512;2023-06-10T14:21:31;8.20;;;4.60;;
44116;SDS011;29781;49.480;8.512;2023-06-10T14:23:57;6.00;;;4.75;;
44116;SDS011;29781;49.480;8.512;2023-06-10T14:26:22;6.18;;;4.35;;
44116;SDS011;29781;49.480;8.512;2023-06-10T14:28:48;4.60;;;4.25;;
44116;SDS011;29781;49.480;8.512;2023-06-10T14:31:14;4.82;;;4.53;;
44116;SDS011;29781;49.480;8.512;2023-06-10T14:33:40;9.45;;;4.47;;
44116;SDS011;29781;49.480;8.512;2023-06-10T14:36:08;7.20;;;4.25;;
44116;SDS011;29781;49.480;8.512;2023-06-10T14:38:34;5.35;;;4.15;;
44116;SDS011;29781;49.480;8.512;2023-06-10T14:41:00;6.70;;;4.40;;
44116;SDS011;29781;49.480;8.512;2023-06-10T14:43:25;4.70;;;4.30;;
44116;SDS011;29781;49.480;8.512;2023-06-10T14:45:51;5.75;;;4.28;;
44116;SDS011;29781;49.480;8.512;2023-06-10T14:48:20;7.28;;;3.80;;
44116;SDS011;29781;49.480;8.512;2023-06-10T14:50:45;4.47;;;3.88;;
44116;SDS011;29781;49.480;8.512;2023-06-10T14:53:15;4.55;;;4.25;;
44116;SDS011;29781;49.480;8.512;2023-06-10T14:55:44;5.28;;;4.57;;
44116;SDS011;29781;49.480;8.512;2023-06-10T14:58:10;4.90;;;4.07;;
44116;SDS011;29781;49.480;8.512;2023-06-10T15:00:36;4.35;;;3.97;;
44116;SDS011;29781;49.480;8.512;2023-06-10T15:03:01;4.75;;;4.35;;
44116;SDS011;29781;49.480;8.512;2023-06-10T15:05:27;5.75;;;4.40;;
44116;SDS011;29781;49.480;8.512;2023-06-10T15:07:53;4.32;;;3.92;;
44116;SDS011;29781;49.480;8.512;2023-06-10T15:10:19;4.30;;;4.00;;
44116;SDS011;29781;49.480;8.512;2023-06-10T15:12:46;6.53;;;4.70;;
44116;SDS011;29781;49.480;8.512;2023-06-10T15:15:12;6.63;;;4.55;;
44116;SDS011;29781;49.480;8.512;2023-06-10T15:17:38;4.43;;;4.03;;